Terminal Aerodrome Forecast
Issued by NWS Greer, SC

Home | Current Version | Previous Version | Text Only | Print | Product List | Glossary On
Versions: 1 2 3 4 5 6 7 8 9 10 11 12 13 14 15 16 17 18 19 20 21 22 23 24 25 26 27 28 29 30 31 32 33
000
FTUS42 KGSP 192156 AAC
TAFGSP
TAF AMD
KGSP 192156Z 1922/2018 16010G20KT 6SM SHRA BKN008 BKN013 OVC018
     FM200000 20009KT P6SM SHRA OVC008
     FM200300 20009KT P6SM OVC003
     FM201000 21008KT 4SM BR BKN003 OVC015
     FM201600 22014G22KT P6SM VCTS BKN015CB=

USA.gov is the U.S. government's official web portal to all federal, state and local government web resources and services.